Terminal Aerodrome Forecast
Issued by NWS

Home | Current Version | Previous Version | Text Only | Print | Product List | Glossary On
Versions: 1 2 3 4 5 6 7 8 9 10 11 12
818
FTUS45 KREV 231720
TAFMMH
TAF
KMMH 231720Z 2318/2418 12006KT P6SM SKC
     FM232200 29009G17KT P6SM VCSH SCT100 BKN180
     FM240300 30009KT P6SM FEW100 SCT180
     FM240600 26005KT P6SM SKC=

USA.gov is the U.S. government's official web portal to all federal, state and local government web resources and services.